Time;durP1;ratioP1;P1;durP2;ratioP2;P2;SDS_P1;SDS_P2;PMS_P1;PMS_P2;Temp;Humidity;BMP_temperature;BMP_pressure;BME280_temperature;BME280_humidity;BME280_pressure;Samples;Min_cycle;Max_cycle;Signal;HPM_P1;HPM_P2
2021/09/10 00:00:14;;;;;;;8.83;1.23;;;7.90;38.30;;;;;;4868671;28;20248;-78
2021/09/10 00:02:37;;;;;;;13.57;1.93;;;;;;;;;;4855848;28;20283;-77
2021/09/10 00:05:00;;;;;;;24.20;3.43;;;8.00;36.50;;;;;;4871427;28;20683;-81
2021/09/10 00:07:24;;;;;;;11.23;1.60;;;;;;;;;;4864907;28;20267;-77
2021/09/10 00:09:46;;;;;;;15.00;2.23;;;;;;;;;;4862477;28;20186;-77
2021/09/10 00:12:09;;;;;;;12.53;1.87;;;;;;;;;;4858914;28;20528;-76
2021/09/10 00:14:32;;;;;;;16.03;2.23;;;;;;;;;;4864988;28;20186;-79
2021/09/10 00:16:55;;;;;;;12.53;3.47;;;;;;;;;;4857683;28;20263;-77
2021/09/10 00:19:17;;;;;;;14.50;1.97;;;;;;;;;;4859170;28;20621;-79
2021/09/10 00:21:41;;;;;;;23.27;3.07;;;8.20;33.90;;;;;;4864795;28;20214;-77
2021/09/10 00:24:04;;;;;;;5.77;0.90;;;;;;;;;;4871092;28;20648;-91
2021/09/10 00:26:27;;;;;;;7.27;1.10;;;;;;;;;;4870296;28;20247;-92
2021/09/10 00:28:50;;;;;;;15.70;2.13;;;;;;;;;;4874087;28;20193;-91
2021/09/10 00:31:12;;;;;;;9.33;1.30;;;;;;;;;;4862265;28;20186;-88
2021/09/10 00:33:35;;;;;;;9.00;1.27;;;;;;;;;;4866509;28;20213;-90
2021/09/10 00:35:58;;;;;;;8.57;1.30;;;;;;;;;;4862520;28;20177;-84
2021/09/10 00:38:22;;;;;;;14.00;1.93;;;8.20;33.80;;;;;;4867997;28;20190;-85
2021/09/10 00:40:45;;;;;;;16.20;2.20;;;;;;;;;;4863193;28;20275;-89
2021/09/10 00:43:08;;;;;;;10.10;1.60;;;;;;;;;;4864663;28;20765;-81
2021/09/10 00:45:31;;;;;;;8.10;1.30;;;;;;;;;;4867460;28;20227;-76
2021/09/10 00:47:54;;;;;;;8.97;1.43;;;;;;;;;;4862577;28;20232;-74
2021/09/10 00:50:16;;;;;;;11.70;1.77;;;;;;;;;;4858366;28;20252;-74
2021/09/10 00:52:39;;;;;;;19.13;2.70;;;7.90;35.80;;;;;;4860901;28;20797;-77
2021/09/10 00:55:04;;;;;;;10.07;1.50;;;7.90;35.70;;;;;;4857876;28;20194;-76
2021/09/10 00:57:27;;;;;;;9.47;1.40;;;;;;;;;;4866943;28;20194;-77
2021/09/10 00:59:49;;;;;;;23.40;3.20;;;;;;;;;;4864903;28;20186;-77
2021/09/10 01:02:13;;;;;;;12.47;1.73;;;;;;;;;;4863020;28;20278;-77
2021/09/10 01:04:37;;;;;;;14.47;2.07;;;;;;;;;;4863534;28;20210;-76
2021/09/10 01:07:01;;;;;;;10.97;1.57;;;7.90;34.90;;;;;;4867156;28;20179;-76
2021/09/10 01:09:24;;;;;;;9.87;1.47;;;;;;;;;;4870044;28;20191;-76
2021/09/10 01:11:49;;;;;;;17.73;2.40;;;7.80;34.80;;;;;;4869987;28;20249;-76
2021/09/10 01:14:12;;;;;;;12.00;1.77;;;;;;;;;;4869257;28;20272;-75
2021/09/10 01:16:35;;;;;;;17.03;2.17;;;;;;;;;;4868981;28;20657;-76
2021/09/10 01:18:58;;;;;;;22.40;2.87;;;;;;;;;;4869508;28;20173;-77
2021/09/10 01:21:20;;;;;;;11.67;1.70;;;;;;;;;;4868387;28;20217;-76
2021/09/10 01:23:43;;;;;;;18.07;2.53;;;;;;;;;;4862089;28;20257;-76
2021/09/10 01:26:07;;;;;;;11.43;1.73;;;7.70;35.80;;;;;;4867281;28;20244;-76
2021/09/10 01:28:30;;;;;;;7.40;1.23;;;;;;;;;;4867170;28;20182;-76
2021/09/10 01:30:52;;;;;;;21.83;2.80;;;;;;;;;;4871631;28;20251;-76
2021/09/10 01:33:15;;;;;;;14.07;1.90;;;;;;;;;;4868868;28;20214;-76
2021/09/10 01:35:39;;;;;;;13.97;2.03;;;7.70;35.70;;;;;;4872980;28;20182;-76
2021/09/10 01:38:02;;;;;;;8.17;1.30;;;;;;;;;;4866855;28;20220;-79
2021/09/10 01:40:25;;;;;;;13.83;1.87;;;7.60;35.60;;;;;;4868490;28;20190;-75
2021/09/10 01:42:49;;;;;;;18.13;2.43;;;7.60;35.60;;;;;;4865141;28;20189;-81
2021/09/10 01:45:14;;;;;;;15.20;1.93;;;7.60;36.10;;;;;;4869082;28;20185;-76
2021/09/10 01:47:37;;;;;;;18.97;2.47;;;;;;;;;;4865554;28;20216;-77
2021/09/10 01:49:59;;;;;;;10.40;1.50;;;;;;;;;;4867129;28;20194;-76
2021/09/10 01:52:22;;;;;;;12.13;1.67;;;;;;;;;;4870358;28;20194;-76
2021/09/10 01:54:45;;;;;;;25.07;3.13;;;;;;;;;;4865193;28;20182;-76
2021/09/10 01:57:08;;;;;;;10.07;1.40;;;;;;;;;;4860276;28;20194;-76
2021/09/10 01:59:32;;;;;;;6.97;1.03;;;7.40;35.30;;;;;;4868953;28;20238;-77
2021/09/10 02:01:54;;;;;;;18.20;2.30;;;;;;;;;;4862478;28;20304;-76
2021/09/10 02:04:18;;;;;;;14.67;1.87;;;;;;;;;;4867246;28;20182;-76
2021/09/10 02:06:41;;;;;;;19.33;2.40;;;;;;;;;;4866549;28;20598;-76
2021/09/10 02:09:04;;;;;;;18.50;2.43;;;;;;;;;;4871494;28;20255;-81
2021/09/10 02:11:26;;;;;;;12.87;1.73;;;;;;;;;;4861537;28;20728;-76
2021/09/10 02:13:49;;;;;;;22.43;2.87;;;;;;;;;;4868704;28;20194;-76
2021/09/10 02:16:13;;;;;;;16.37;2.13;;;7.20;36.20;;;;;;4868660;28;20651;-76
2021/09/10 02:18:36;;;;;;;17.00;2.20;;;;;;;;;;4868473;28;20246;-76
2021/09/10 02:20:59;;;;;;;12.00;1.70;;;;;;;;;;4871661;28;20696;-76
2021/09/10 02:23:21;;;;;;;15.77;2.00;;;;;;;;;;4860444;28;20256;-76
2021/09/10 02:25:44;;;;;;;22.33;2.80;;;;;;;;;;4867282;28;20588;-77
2021/09/10 02:28:07;;;;;;;13.63;1.77;;;;;;;;;;4868089;28;20244;-76
2021/09/10 02:30:30;;;;;;;23.73;3.00;;;;;;;;;;4875210;28;20235;-76
2021/09/10 02:32:54;;;;;;;22.70;2.77;;;7.00;37.00;;;;;;4857565;28;20666;-76
2021/09/10 02:35:17;;;;;;;13.47;1.80;;;;;;;;;;4865760;28;20233;-76
2021/09/10 02:37:39;;;;;;;18.70;2.27;;;;;;;;;;4865968;28;20229;-78
2021/09/10 02:40:02;;;;;;;13.37;1.80;;;;;;;;;;4866592;28;20189;-77
2021/09/10 02:42:25;;;;;;;13.10;1.80;;;;;;;;;;4866982;28;20206;-75
2021/09/10 02:44:48;;;;;;;18.03;2.23;;;;;;;;;;4886649;28;20247;-84
2021/09/10 02:47:11;;;;;;;11.93;1.73;;;;;;;;;;4859299;28;20202;-76
2021/09/10 02:49:34;;;;;;;8.47;1.23;;;6.80;36.00;;;;;;4861844;28;20240;-77
2021/09/10 02:51:57;;;;;;;19.97;2.57;;;;;;;;;;4862610;28;20197;-76
2021/09/10 02:54:21;;;;;;;13.20;1.80;;;;;;;;;;4867476;28;20185;-76
2021/09/10 02:56:44;;;;;;;18.40;2.37;;;;;;;;;;4868183;28;20247;-78
2021/09/10 02:59:07;;;;;;;12.77;1.70;;;;;;;;;;4867563;28;20232;-76
2021/09/10 03:01:30;;;;;;;18.03;2.20;;;;;;;;;;4861351;28;20210;-78
2021/09/10 03:03:54;;;;;;;15.00;2.00;;;;;;;;;;4874854;28;20208;-80
2021/09/10 03:06:18;;;;;;;13.73;1.73;;;6.70;35.40;;;;;;4866275;28;20186;-76
2021/09/10 03:08:41;;;;;;;21.47;2.67;;;;;;;;;;4862454;28;20185;-76
2021/09/10 03:11:04;;;;;;;16.40;2.10;;;;;;;;;;4867954;28;20225;-77
2021/09/10 03:13:27;;;;;;;13.37;1.73;;;;;;;;;;4867285;28;20600;-77
2021/09/10 03:15:49;;;;;;;23.07;2.87;;;;;;;;;;4869696;28;20271;-78
2021/09/10 03:18:12;;;;;;;18.87;2.43;;;;;;;;;;4873034;28;20611;-80
2021/09/10 03:20:35;;;;;;;8.70;1.30;;;;;;;;;;4864976;28;20190;-90
2021/09/10 03:22:59;;;;;;;7.80;2.00;;;6.60;35.40;;;;;;4866010;28;20209;-86
2021/09/10 03:25:22;;;;;;;6.30;1.00;;;;;;;;;;4868223;28;20251;-91
2021/09/10 03:27:45;;;;;;;18.43;2.23;;;;;;;;;;4878150;28;20211;-91
2021/09/10 03:30:08;;;;;;;7.97;1.13;;;7.20;35.20;;;;;;4868997;28;20245;-88
2021/09/10 03:32:31;;;;;;;7.10;1.00;;;;;;;;;;4867246;28;20209;-92
2021/09/10 03:34:54;;;;;;;12.77;1.77;;;;;;;;;;4859079;28;20238;-89
2021/09/10 03:37:17;;;;;;;13.80;1.77;;;;;;;;;;4867626;28;20251;-85
2021/09/10 03:39:41;;;;;;;13.67;1.83;;;6.30;36.00;;;;;;4865807;28;20257;-87
2021/09/10 03:42:04;;;;;;;7.33;1.00;;;;;;;;;;4869920;28;20698;-84
2021/09/10 03:44:26;;;;;;;6.57;0.93;;;;;;;;;;4859645;28;20273;-91
2021/09/10 03:46:49;;;;;;;14.73;1.90;;;;;;;;;;4859503;28;20194;-85
2021/09/10 03:49:12;;;;;;;6.90;1.00;;;;;;;;;;4872365;28;20655;-88
2021/09/10 03:51:35;;;;;;;7.57;1.10;;;;;;;;;;4859225;28;20182;-87
2021/09/10 03:53:57;;;;;;;7.67;1.07;;;;;;;;;;4868473;28;20198;-89
2021/09/10 03:56:21;;;;;;;9.13;1.30;;;6.40;35.50;;;;;;4874295;28;20678;-88
2021/09/10 03:58:44;;;;;;;20.83;2.53;;;;;;;;;;4877412;28;20185;-88
2021/09/10 04:01:08;;;;;;;16.43;2.20;;;;;;;;;;4862800;28;20627;-88
2021/09/10 04:03:33;;;;;;;6.03;0.97;;;;;;;;;;4866144;28;20599;-79
2021/09/10 04:05:56;;;;;;;8.43;1.17;;;;;;;;;;4865824;28;20241;-87
2021/09/10 04:08:19;;;;;;;7.77;1.10;;;;;;;;;;4869544;28;20189;-83
2021/09/10 04:10:42;;;;;;;15.37;1.93;;;;;;;;;;4870439;28;20228;-87
2021/09/10 04:13:08;;;;;;;6.93;1.00;;;6.20;35.90;;;;;;4866661;28;20248;-86
2021/09/10 04:15:31;;;;;;;4.07;0.60;;;;;;;;;;4884387;28;20196;-88
2021/09/10 04:17:53;;;;;;;20.17;2.40;;;;;;;;;;4876266;28;20185;-85
2021/09/10 04:20:16;;;;;;;11.07;1.47;;;;;;;;;;4868665;28;20189;-87
2021/09/10 04:22:39;;;;;;;9.00;1.20;;;;;;;;;;4868641;28;20254;-88
2021/09/10 04:25:01;;;;;;;9.80;1.37;;;;;;;;;;4861284;28;20647;-90
2021/09/10 04:27:24;;;;;;;11.40;1.53;;;;;;;;;;4861491;28;20185;-87
2021/09/10 04:29:48;;;;;;;21.27;2.57;;;6.20;34.40;;;;;;4870516;28;20189;-86
2021/09/10 04:32:11;;;;;;;6.67;1.00;;;;;;;;;;4865888;28;20225;-87
2021/09/10 04:34:33;;;;;;;9.70;1.23;;;;;;;;;;4863827;28;20217;-88
2021/09/10 04:36:56;;;;;;;15.63;1.97;;;;;;;;;;4862238;28;20190;-87
2021/09/10 04:39:19;;;;;;;9.07;1.37;;;;;;;;;;4863989;28;20198;-85
2021/09/10 04:41:41;;;;;;;25.33;3.13;;;;;;;;;;4866562;28;20733;-86
2021/09/10 04:44:04;;;;;;;9.13;1.33;;;;;;;;;;4863785;28;20190;-80
2021/09/10 04:46:28;;;;;;;11.47;1.60;;;6.50;32.50;;;;;;4861920;28;20178;-82
2021/09/10 04:48:51;;;;;;;25.03;3.03;;;;;;;;;;4859598;28;20695;-86
2021/09/10 04:51:14;;;;;;;6.07;1.00;;;;;;;;;;4861812;28;20236;-86
2021/09/10 04:53:39;;;;;;;10.13;1.40;;;6.80;31.50;;;;;;4861816;28;20554;-75
2021/09/10 04:56:02;;;;;;;6.00;0.83;;;;;;;;;;4880021;28;20235;-87
2021/09/10 04:58:25;;;;;;;10.83;1.53;;;;;;;;;;4874476;28;20192;-85
2021/09/10 05:00:48;;;;;;;65.10;7.40;;;;;;;;;;4890238;28;20979;-83
2021/09/10 05:03:16;;;;;;;8.37;1.13;;;7.20;30.10;;;;;;4881444;28;20298;-73
2021/09/10 05:05:40;;;;;;;18.93;2.37;;;;;;;;;;4882681;28;20184;-89
2021/09/10 05:08:03;;;;;;;9.73;1.50;;;;;;;;;;4883503;28;20189;-79
2021/09/10 05:10:26;;;;;;;16.50;2.10;;;;;;;;;;4882134;28;20193;-83
2021/09/10 05:12:48;;;;;;;18.77;2.43;;;;;;;;;;4873482;28;20710;-78
2021/09/10 05:15:11;;;;;;;11.87;1.60;;;7.60;99.90;;;;;;4870207;28;20194;-88
2021/09/10 05:17:34;;;;;;;10.67;1.43;;;;;;;;;;4882583;28;20205;-78
2021/09/10 05:20:00;;;;;;;15.00;1.93;;;7.80;99.90;;;;;;4871641;28;20197;-86
2021/09/10 05:22:23;;;;;;;9.73;1.40;;;;;;;;;;4870138;28;20248;-85
2021/09/10 05:24:46;;;;;;;16.83;2.07;;;;;;;;;;4868414;28;20220;-87
2021/09/10 05:27:08;;;;;;;10.07;1.47;;;;;;;;;;4880516;28;20227;-87
2021/09/10 05:29:31;;;;;;;10.10;1.37;;;;;;;;;;4880246;28;20712;-84
2021/09/10 05:31:54;;;;;;;22.80;2.87;;;;;;;;;;4879019;28;20263;-78
2021/09/10 05:34:17;;;;;;;12.03;1.70;;;;;;;;;;4879300;28;20232;-84
2021/09/10 05:36:41;;;;;;;25.37;3.10;;;8.70;99.90;;;;;;4869756;28;20193;-85
2021/09/10 05:39:03;;;;;;;12.63;1.77;;;;;;;;;;4865488;28;20253;-81
2021/09/10 05:41:26;;;;;;;11.80;1.60;;;;;;;;;;4877854;28;20189;-79
2021/09/10 05:43:49;;;;;;;24.40;3.03;;;;;;;;;;4870641;28;20764;-78
2021/09/10 05:46:14;;;;;;;11.67;1.63;;;9.20;99.90;;;;;;4867541;28;20660;-78
2021/09/10 05:48:37;;;;;;;19.17;2.47;;;;;;;;;;4868625;28;20211;-77
2021/09/10 05:51:00;;;;;;;15.77;2.03;;;;;;;;;;4864433;28;20190;-78
2021/09/10 05:53:24;;;;;;;16.53;2.17;;;9.70;99.90;;;;;;4864764;28;20216;-76
2021/09/10 05:55:47;;;;;;;20.87;2.53;;;;;;;;;;4870789;28;20198;-77
2021/09/10 05:58:09;;;;;;;10.33;1.40;;;;;;;;;;4870035;28;20193;-78
2021/09/10 06:00:32;;;;;;;73.13;8.40;;;;;;;;;;4863081;28;20228;-78
2021/09/10 06:02:55;;;;;;;24.33;3.03;;;;;;;;;;4869413;28;20237;-77
2021/09/10 06:05:18;;;;;;;18.67;2.33;;;;;;;;;;4868215;28;20248;-77
2021/09/10 06:07:40;;;;;;;23.63;2.93;;;;;;;;;;4876001;28;20193;-78
2021/09/10 06:10:05;;;;;;;12.67;1.70;;;10.70;99.90;;;;;;4876744;28;20709;-78
2021/09/10 06:12:27;;;;;;;15.17;2.00;;;;;;;;;;4877748;28;20239;-76
2021/09/10 06:14:50;;;;;;;20.87;2.57;;;;;;;;;;4876986;28;20194;-79
2021/09/10 06:17:13;;;;;;;10.87;1.50;;;;;;;;;;4877960;28;20231;-81
2021/09/10 06:19:36;;;;;;;8.13;1.13;;;;;;;;;;4877326;28;20189;-81
2021/09/10 06:21:58;;;;;;;13.90;1.83;;;;;;;;;;4876830;28;20185;-82
2021/09/10 06:24:21;;;;;;;10.83;1.50;;;;;;;;;;4876510;28;20233;-83
2021/09/10 06:26:45;;;;;;;22.60;2.80;;;11.60;40.30;;;;;;4876676;28;20230;-82
2021/09/10 06:29:08;;;;;;;11.97;1.67;;;;;;;;;;4873363;28;21052;-83
2021/09/10 06:31:31;;;;;;;9.07;1.30;;;;;;;;;;4869189;28;20258;-81
2021/09/10 06:33:53;;;;;;;22.50;2.87;;;;;;;;;;4865958;28;20218;-81
2021/09/10 06:36:16;;;;;;;9.80;1.40;;;;;;;;;;4859984;28;20260;-83
2021/09/10 06:38:39;;;;;;;22.97;2.83;;;;;;;;;;4869433;28;20190;-82
2021/09/10 06:41:02;;;;;;;12.27;1.67;;;;;;;;;;4870981;28;20251;-85
2021/09/10 06:43:26;;;;;;;11.40;1.50;;;12.40;44.00;;;;;;4859873;28;20564;-84
2021/09/10 06:45:49;;;;;;;21.90;2.80;;;;;;;;;;4862182;28;20664;-80
2021/09/10 06:48:12;;;;;;;11.13;1.53;;;;;;;;;;4863780;28;20190;-81
2021/09/10 06:50:35;;;;;;;9.30;1.37;;;;;;;;;;4865926;28;20189;-76
2021/09/10 06:53:00;;;;;;;18.70;2.37;;;;;;;;;;4864285;28;20240;-78
2021/09/10 06:55:23;;;;;;;12.97;1.87;;;;;;;;;;4864694;28;20608;-75
2021/09/10 06:57:47;;;;;;;24.97;3.03;;;13.20;46.80;;;;;;4866430;28;20200;-76
2021/09/10 07:00:14;;;;;;;19.90;2.53;;;13.50;47.20;;;;;;4864014;28;20612;-77
2021/09/10 07:02:37;;;;;;;15.30;2.03;;;;;;;;;;4869878;28;20255;-77
2021/09/10 07:05:00;;;;;;;27.37;3.47;;;;;;;;;;4856062;28;20209;-76
2021/09/10 07:07:23;;;;;;;23.60;3.17;;;;;;;;;;4856483;28;20178;-75
2021/09/10 07:09:46;;;;;;;23.63;3.17;;;;;;;;;;4869435;28;20604;-76
2021/09/10 07:12:09;;;;;;;20.30;2.60;;;14.30;48.30;;;;;;4876428;28;20190;-76
2021/09/10 07:14:32;;;;;;;10.90;1.57;;;;;;;;;;4863980;28;20193;-77
2021/09/10 07:16:56;;;;;;;15.23;2.00;;;14.60;48.20;;;;;;4859718;28;20365;-76
2021/09/10 07:19:19;;;;;;;16.90;2.17;;;;;;;;;;4857676;28;20225;-77
2021/09/10 07:21:42;;;;;;;18.83;2.43;;;;;;;;;;4866167;28;20733;-76
2021/09/10 07:24:05;;;;;;;15.80;2.07;;;;;;;;;;4862546;28;20234;-76
2021/09/10 07:26:30;;;;;;;11.40;1.60;;;;;;;;;;4866445;28;20238;-77
2021/09/10 07:28:53;;;;;;;39.87;4.73;;;;;;;;;;4862571;28;20189;-78
2021/09/10 07:31:16;;;;;;;14.37;1.87;;;;;;;;;;4864663;28;20205;-76
2021/09/10 07:33:42;;;;;;;13.13;1.77;;;15.60;49.40;;;;;;4864858;28;20352;-87
2021/09/10 07:36:09;;;;;;;15.13;2.00;;;15.80;49.60;;;;;;4865063;28;20231;-76
2021/09/10 07:38:31;;;;;;;9.13;1.20;;;;;;;;;;4864268;28;20182;-75
2021/09/10 07:40:54;;;;;;;11.87;1.57;;;;;;;;;;4860591;28;20192;-80
2021/09/10 07:43:17;;;;;;;13.53;1.80;;;;;;;;;;4856824;28;20194;-76
2021/09/10 07:45:40;;;;;;;15.17;1.90;;;;;;;;;;4861732;28;20190;-78
2021/09/10 07:48:03;;;;;;;16.53;2.17;;;;;;;;;;4856446;28;20216;-76
2021/09/10 07:50:26;;;;;;;17.10;2.17;;;16.80;50.50;;;;;;4873286;28;20249;-74
2021/09/10 07:52:49;;;;;;;17.10;2.07;;;;;;;;;;4867074;28;20189;-82
2021/09/10 07:55:12;;;;;;;12.33;1.63;;;;;;;;;;4872370;28;20243;-78
2021/09/10 07:57:35;;;;;;;12.17;1.60;;;;;;;;;;4865801;28;20247;-78
2021/09/10 07:59:58;;;;;;;18.13;2.33;;;;;;;;;;4870279;28;20201;-78
2021/09/10 08:02:20;;;;;;;15.60;1.93;;;;;;;;;;4864688;28;20233;-76
2021/09/10 08:04:43;;;;;;;20.50;2.50;;;;;;;;;;4863737;28;20205;-77
2021/09/10 08:07:08;;;;;;;11.97;1.60;;;18.40;52.30;;;;;;4864311;28;20190;-77
2021/09/10 08:09:30;;;;;;;13.73;1.77;;;;;;;;;;4862739;28;20591;-78
2021/09/10 08:11:53;;;;;;;34.87;4.17;;;;;;;;;;4863892;28;20243;-77
2021/09/10 08:14:16;;;;;;;21.90;2.73;;;;;;;;;;4874230;28;20662;-76
2021/09/10 08:16:38;;;;;;;15.50;1.97;;;;;;;;;;4861321;28;20244;-75
2021/09/10 08:19:02;;;;;;;13.13;1.70;;;;;;;;;;4858935;28;20664;-76
2021/09/10 08:21:24;;;;;;;17.10;2.13;;;;;;;;;;4858648;28;20483;-76
2021/09/10 08:23:48;;;;;;;124.20;14.10;;;19.70;54.00;;;;;;4855959;28;20223;-76
2021/09/10 08:26:11;;;;;;;16.63;2.10;;;;;;;;;;4858193;28;20190;-80
2021/09/10 08:28:34;;;;;;;9.07;1.17;;;;;;;;;;4866640;28;20197;-84
2021/09/10 08:30:56;;;;;;;25.60;3.03;;;;;;;;;;4858534;28;20248;-77
2021/09/10 08:33:20;;;;;;;23.87;3.00;;;;;;;;;;4853379;28;20195;-81
2021/09/10 08:35:43;;;;;;;19.40;2.37;;;;;;;;;;4864015;28;20695;-83
2021/09/10 08:38:07;;;;;;;18.07;2.27;;;;;;;;;;4866813;28;20584;-76
2021/09/10 08:40:34;;;;;;;8.17;1.03;;;20.70;55.90;;;;;;4870067;28;20746;-80
2021/09/10 08:42:57;;;;;;;20.93;2.60;;;;;;;;;;4859197;28;20673;-80
2021/09/10 08:45:20;;;;;;;26.60;3.40;;;;;;;;;;4865154;28;20662;-86
2021/09/10 08:47:44;;;;;;;20.93;2.63;;;21.30;57.10;;;;;;4864072;28;20191;-81
2021/09/10 08:50:07;;;;;;;14.53;1.97;;;21.60;57.10;;;;;;4866216;28;20199;-75
2021/09/10 08:52:30;;;;;;;6.87;1.40;;;;;;;;;;4863702;28;20640;-75
2021/09/10 08:54:52;;;;;;;8.73;1.50;;;;;;;;;;4854968;28;20200;-75
2021/09/10 08:57:16;;;;;;;6.60;1.13;;;22.70;57.70;;;;;;4865150;28;20193;-81
2021/09/10 08:59:39;;;;;;;9.80;1.77;;;;;;;;;;4862735;28;20578;-85
2021/09/10 09:02:02;;;;;;;9.83;1.67;;;;;;;;;;4860679;28;20233;-76
2021/09/10 09:04:30;;;;;;;12.27;2.03;;;24.70;59.70;;;;;;4871527;28;20206;-85
2021/09/10 09:06:55;;;;;;;11.13;1.83;;;25.90;45.50;;;;;;4865253;28;20554;-86
2021/09/10 09:09:35;;;;;;;10.47;1.67;;;27.60;46.80;;;;;;4858514;28;20599;-83
2021/09/10 09:12:12;;;;;;;3.03;0.50;;;30.00;48.00;;;;;;4869883;28;20184;-94
2021/09/10 09:14:45;;;;;;;5.37;0.90;;;32.20;49.00;;;;;;4861066;28;20965;-83
2021/09/10 09:17:18;;;;;;;14.70;2.13;;;33.60;50.00;;;;;;4861207;28;20524;-82
2021/09/10 09:19:41;;;;;;;17.70;2.50;;;;;;;;;;4861003;28;20178;-82
2021/09/10 09:22:04;;;;;;;9.80;1.48;;;;;;;;;;4864055;28;20251;-84
2021/09/10 09:24:27;;;;;;;7.78;1.13;;;;;;;;;;4863518;28;20209;-85
2021/09/10 09:26:52;;;;;;;17.20;2.28;;;38.30;51.90;;;;;;4862682;28;20248;-80
2021/09/10 09:29:16;;;;;;;10.30;1.35;;;39.50;52.20;;;;;;4862836;28;20239;-90
2021/09/10 09:31:40;;;;;;;12.45;1.65;;;40.80;52.70;;;;;;4861971;28;20212;-84
2021/09/10 09:34:03;;;;;;;8.30;1.10;;;41.50;53.10;;;;;;4859172;28;20230;-75
2021/09/10 09:36:26;;;;;;;9.80;1.27;;;;;;;;;;4878465;28;20189;-85
2021/09/10 09:38:49;;;;;;;47.00;5.63;;;;;;;;;;4866712;28;20589;-78
2021/09/10 09:41:14;;;;;;;12.20;1.63;;;43.80;54.00;;;;;;4877296;28;20254;-80
2021/09/10 09:43:38;;;;;;;9.02;1.25;;;43.20;53.80;;;;;;4858520;28;20240;-80
2021/09/10 09:46:01;;;;;;;12.45;1.60;;;;;;;;;;4858924;28;20194;-78
2021/09/10 09:48:26;;;;;;;12.15;1.60;;;43.50;53.90;;;;;;4875289;28;20197;-80
2021/09/10 09:50:52;;;;;;;15.35;1.95;;;43.40;54.00;;;;;;4884139;28;20209;-81
2021/09/10 09:53:14;;;;;;;14.55;1.90;;;;;;;;;;4868989;28;20200;-80
2021/09/10 09:55:37;;;;;;;15.50;1.98;;;;;;;;;;4868307;28;20623;-81
2021/09/10 09:58:03;;;;;;;10.65;1.50;;;45.00;54.60;;;;;;4866007;28;20783;-82
2021/09/10 10:00:26;;;;;;;17.00;2.22;;;;;;;;;;4855790;28;20256;-77
2021/09/10 10:02:49;;;;;;;15.07;2.00;;;;;;;;;;4862965;28;20291;-77
2021/09/10 10:05:17;;;;;;;11.98;1.63;;;45.80;54.80;;;;;;4867481;28;20193;-84
2021/09/10 10:07:46;;;;;;;13.73;1.85;;;45.60;54.80;;;;;;4865899;28;20190;-84
2021/09/10 10:10:10;;;;;;;18.92;2.55;;;46.60;55.10;;;;;;4866072;28;20263;-82
2021/09/10 10:12:34;;;;;;;10.80;1.45;;;;;;;;;;4869120;28;20190;-80
2021/09/10 10:15:19;;;;;;;12.02;1.55;;;46.30;54.90;;;;;;4863250;28;20206;-85
2021/09/10 10:17:42;;;;;;;20.52;2.65;;;;;;;;;;4869467;28;20203;-90
2021/09/10 10:20:06;;;;;;;21.10;2.85;;;46.40;55.10;;;;;;4866158;28;20676;-83
2021/09/10 10:22:35;;;;;;;8.43;1.15;;;46.10;55.00;;;;;;4868881;28;20255;-86
2021/09/10 10:24:59;;;;;;;6.28;0.98;;;46.30;55.00;;;;;;4858337;28;20182;-87
2021/09/10 10:27:35;;;;;;;13.52;1.83;;;46.30;55.10;;;;;;4867998;28;20213;-79
2021/09/10 10:29:58;;;;;;;6.07;0.82;;;;;;;;;;4865514;28;20247;-90
2021/09/10 10:32:30;;;;;;;21.27;2.70;;;45.20;54.70;;;;;;4869650;28;20266;-82
2021/09/10 10:35:24;;;;;;;21.95;2.85;;;45.70;54.90;;;;;;4863339;28;20263;-87
2021/09/10 10:37:50;;;;;;;21.23;2.75;;;47.00;55.30;;;;;;4855521;28;20271;-94
2021/09/10 10:40:34;;;;;;;14.73;2.03;;;47.30;55.50;;;;;;4869371;28;20190;-81
2021/09/10 10:42:59;;;;;;;8.68;1.23;;;;;;;;;;4868030;28;20177;-83
2021/09/10 10:45:55;;;;;;;14.95;2.05;;;47.70;55.60;;;;;;4874561;28;20250;-88
2021/09/10 10:48:49;;;;;;;6.35;0.98;;;48.90;55.90;;;;;;4875595;28;20949;-90
2021/09/10 10:51:50;;;;;;;7.40;1.13;;;49.70;56.20;;;;;;4878934;28;20231;-92
2021/09/10 10:54:15;;;;;;;8.43;1.17;;;50.10;56.30;;;;;;4862066;28;20180;-89
2021/09/10 10:56:43;;;;;;;14.35;2.00;;;48.80;56.00;;;;;;4874467;28;20225;-84
2021/09/10 10:59:29;;;;;;;14.27;2.03;;;48.20;55.90;;;;;;4862698;28;20182;-79
2021/09/10 11:02:28;;;;;;;19.88;2.75;;;46.90;55.50;;;;;;4859488;28;20561;-79
2021/09/10 11:04:51;;;;;;;20.85;2.83;;;48.50;55.90;;;;;;4868901;28;20190;-78
2021/09/10 11:07:14;;;;;;;10.48;1.50;;;;;;;;;;4860329;28;20464;-78
2021/09/10 11:09:38;;;;;;;12.20;1.80;;;49.70;56.40;;;;;;4868074;28;20193;-78
2021/09/10 11:12:01;;;;;;;6.60;1.00;;;;;;;;;;4866244;28;20224;-79
2021/09/10 11:14:31;;;;;;;14.07;2.08;;;49.80;56.40;;;;;;4880587;28;20213;-89
2021/09/10 11:16:54;;;;;;;8.43;1.27;;;;;;;;;;4869886;28;20210;-83
2021/09/10 11:19:21;;;;;;;9.40;1.42;;;51.00;56.70;;;;;;4858391;28;20470;-81
2021/09/10 11:21:44;;;;;;;15.55;2.28;;;;;;;;;;4863746;28;20186;-75
2021/09/10 11:24:11;;;;;;;9.73;1.50;;;49.90;56.40;;;;;;4866659;28;20263;-79
2021/09/10 11:26:38;;;;;;;10.88;1.67;;;51.30;56.00;;;;;;4859260;28;20254;-80
2021/09/10 11:29:12;;;;;;;8.75;1.30;;;51.50;56.10;;;;;;4867104;28;20242;-77
2021/09/10 11:31:35;;;;;;;9.02;1.40;;;;;;;;;;4867108;28;20314;-76
2021/09/10 11:33:58;;;;;;;11.70;1.75;;;;;;;;;;4862247;28;20625;-76
2021/09/10 11:36:24;;;;;;;16.75;2.35;;;52.90;57.40;;;;;;4867953;28;20220;-79
2021/09/10 11:38:48;;;;;;;36.40;4.93;;;53.80;57.70;;;;;;4861017;28;20263;-78
2021/09/10 11:41:11;;;;;;;8.43;1.30;;;;;;;;;;4868964;28;20354;-75
2021/09/10 11:43:38;;;;;;;8.75;1.33;;;54.30;50.40;;;;;;4864947;28;20181;-78
2021/09/10 11:46:06;;;;;;;9.63;1.40;;;54.30;50.30;;;;;;4864065;28;20198;-82
2021/09/10 11:48:31;;;;;;;11.85;1.75;;;54.30;50.40;;;;;;4865704;28;20200;-86
2021/09/10 11:50:56;;;;;;;7.60;1.17;;;53.80;57.80;;;;;;4867246;28;20604;-78
2021/09/10 11:53:24;;;;;;;11.73;1.80;;;53.20;57.60;;;;;;4868495;28;20197;-87
2021/09/10 11:56:00;;;;;;;16.88;2.45;;;50.90;56.90;;;;;;4862924;28;20674;-80
2021/09/10 11:58:46;;;;;;;8.25;1.25;;;49.90;56.40;;;;;;4864583;28;20227;-88
2021/09/10 12:01:19;;;;;;;15.93;2.42;;;51.20;56.80;;;;;;4860641;28;20659;-81
2021/09/10 12:03:47;;;;;;;19.58;2.53;;;51.20;56.90;;;;;;4856313;28;20212;-82
2021/09/10 12:06:12;;;;;;;22.17;2.85;;;;;;;;;;4856431;28;20929;-88
2021/09/10 12:08:35;;;;;;;18.50;2.47;;;;;;;;;;4855379;28;21004;-81
2021/09/10 12:10:58;;;;;;;7.20;1.08;;;;;;;;;;4857074;28;20190;-75
2021/09/10 12:13:23;;;;;;;17.83;2.33;;;;;;;;;;4856405;28;20178;-75
2021/09/10 12:15:47;;;;;;;22.30;2.83;;;53.50;57.70;;;;;;4856141;28;20221;-77
2021/09/10 12:18:11;;;;;;;12.88;1.85;;;54.30;50.50;;;;;;4859885;28;20193;-79
2021/09/10 12:20:33;;;;;;;14.13;1.92;;;;;;;;;;4874148;28;20235;-77
2021/09/10 12:23:00;;;;;;;8.00;1.10;;;54.50;50.60;;;;;;4875613;28;20184;-76
2021/09/10 12:25:46;;;;;;;14.52;1.98;;;54.30;50.50;;;;;;4875468;28;20192;-77
2021/09/10 12:28:25;;;;;;;10.75;1.50;;;51.60;57.10;;;;;;4855446;28;20603;-78
2021/09/10 12:30:51;;;;;;;22.00;2.83;;;50.50;56.70;;;;;;4853072;28;20217;-82
2021/09/10 12:33:16;;;;;;;12.93;1.70;;;51.10;56.90;;;;;;4857612;28;20201;-81
2021/09/10 12:35:40;;;;;;;73.25;51.17;;;52.60;57.30;;;;;;4870877;28;20243;-88
2021/09/10 12:38:04;;;;;;;301.33;280.38;;;53.10;57.50;;;;;;4865090;28;20596;-84
2021/09/10 12:40:27;;;;;;;365.48;340.52;;;;;;;;;;4858179;28;20182;-79
2021/09/10 12:42:50;;;;;;;289.23;267.73;;;;;;;;;;4861248;28;20247;-82
2021/09/10 12:45:13;;;;;;;192.98;179.50;;;;;;;;;;4860407;28;20211;-79
2021/09/10 12:47:37;;;;;;;286.52;264.25;;;53.00;57.60;;;;;;4862273;28;20196;-79
2021/09/10 12:50:01;;;;;;;284.00;261.25;;;;;;;;;;4870261;28;20626;-82
2021/09/10 12:52:24;;;;;;;247.10;226.55;;;;;;;;;;4870852;28;20692;-78
2021/09/10 12:54:47;;;;;;;440.25;395.73;;;;;;;;;;4869348;28;20599;-82
2021/09/10 12:57:11;;;;;;;278.45;251.60;;;;;;;;;;4867296;28;20221;-86
2021/09/10 12:59:37;;;;;;;365.55;336.20;;;;;;;;;;4867825;28;20204;-78
2021/09/10 13:02:02;;;;;;;462.77;419.13;;;;;;;;;;4859462;28;20775;-82
2021/09/10 13:04:26;;;;;;;465.90;420.88;;;54.80;50.70;;;;;;4869415;28;20255;-86
2021/09/10 13:06:50;;;;;;;386.05;359.38;;;;;;;;;;4865608;28;20531;-86
2021/09/10 13:09:15;;;;;;;443.13;406.42;;;;;;;;;;4867096;28;20189;-78
2021/09/10 13:11:38;;;;;;;296.25;279.42;;;;;;;;;;4872626;28;20185;-85
2021/09/10 13:14:01;;;;;;;338.25;317.88;;;;;;;;;;4873633;28;20658;-84
2021/09/10 13:16:24;;;;;;;348.23;325.80;;;;;;;;;;4862172;28;20206;-81
2021/09/10 13:18:47;;;;;;;307.77;283.65;;;;;;;;;;4868755;28;20554;-83
2021/09/10 13:21:12;;;;;;;249.85;234.55;;;45.10;55.00;;;;;;4876007;28;20201;-83
2021/09/10 13:23:35;;;;;;;103.20;97.38;;;;;;;;;;4867599;28;21235;-87
2021/09/10 13:26:03;;;;;;;16.40;10.23;;;;;;;;;;4866531;28;20190;-75
2021/09/10 13:28:26;;;;;;;207.45;195.30;;;;;;;;;;4870027;28;20469;-90
2021/09/10 13:30:49;;;;;;;332.52;307.38;;;;;;;;;;4859999;28;20710;-82
2021/09/10 13:33:14;;;;;;;298.77;277.70;;;;;;;;;;4863884;28;20637;-84